createdAt,value
2018-06-28T00:01:36.334Z,96.20
2018-06-28T00:04:04.688Z,96.20
2018-06-28T00:06:33.024Z,96.40
2018-06-28T00:09:01.374Z,96.50
2018-06-28T00:11:29.724Z,96.50
2018-06-28T00:13:58.937Z,96.70
2018-06-28T00:16:27.279Z,96.80
2018-06-28T00:18:55.640Z,96.90
2018-06-28T00:21:23.989Z,97.00
2018-06-28T00:23:52.310Z,97.20
2018-06-28T00:26:20.890Z,97.30
2018-06-28T00:28:49.226Z,97.30
2018-06-28T00:31:18.327Z,98.00
2018-06-28T00:33:46.891Z,97.70
2018-06-28T00:36:15.221Z,97.90
2018-06-28T00:38:43.740Z,97.90
2018-06-28T00:41:12.088Z,98.10
2018-06-28T00:43:40.519Z,98.20
2018-06-28T00:46:08.858Z,98.20
2018-06-28T00:48:37.218Z,98.30
2018-06-28T00:51:05.593Z,98.60
2018-06-28T00:53:34.058Z,98.60
2018-06-28T00:56:03.183Z,99.00
2018-06-28T00:58:32.175Z,98.90
2018-06-28T01:01:00.579Z,99.00
2018-06-28T01:03:28.922Z,99.10
2018-06-28T01:05:57.273Z,99.30
2018-06-28T01:08:26.440Z,99.50
2018-06-28T01:10:54.781Z,99.40
2018-06-28T01:13:23.131Z,99.50
2018-06-28T01:15:52.250Z,99.90
2018-06-28T01:18:20.761Z,99.90
2018-06-28T01:20:49.250Z,99.90
2018-06-28T01:23:17.725Z,99.90
2018-06-28T01:25:46.582Z,99.90
2018-06-28T01:28:14.909Z,99.90
2018-06-28T01:30:43.269Z,99.90
2018-06-28T01:33:11.617Z,99.90
2018-06-28T01:35:40.051Z,99.90
2018-06-28T01:38:08.395Z,99.90
2018-06-28T01:40:36.971Z,99.90
2018-06-28T01:46:04.063Z,99.90
2018-06-28T01:48:32.406Z,99.90
2018-06-28T01:51:00.772Z,99.90
2018-06-28T01:53:29.144Z,99.90
2018-06-28T01:55:57.486Z,99.90
2018-06-28T01:58:25.922Z,99.90
2018-06-28T02:00:54.274Z,99.90
2018-06-28T02:03:22.646Z,99.90
2018-06-28T02:05:50.995Z,99.90
2018-06-28T02:08:19.354Z,99.90
2018-06-28T02:10:48.435Z,99.90
2018-06-28T02:13:16.818Z,99.90
2018-06-28T02:15:45.172Z,99.90
2018-06-28T02:18:13.522Z,99.90
2018-06-28T02:20:42.045Z,99.90
2018-06-28T02:23:11.145Z,99.90
2018-06-28T02:25:40.268Z,99.90
2018-06-28T02:28:08.653Z,99.90
2018-06-28T02:30:37.006Z,99.90
2018-06-28T02:33:06.346Z,99.90
2018-06-28T02:35:34.683Z,99.90
2018-06-28T02:38:03.953Z,99.90
2018-06-28T02:40:32.300Z,99.90
2018-06-28T02:43:00.647Z,99.90
2018-06-28T02:45:29.061Z,99.90
2018-06-28T02:47:57.402Z,99.90
2018-06-28T02:50:25.802Z,99.90
2018-06-28T02:52:54.346Z,99.90
2018-06-28T02:55:22.763Z,99.90
2018-06-28T02:57:51.230Z,99.90
2018-06-28T03:00:19.653Z,99.90
2018-06-28T03:02:48.005Z,99.90
2018-06-28T03:05:16.417Z,99.90
2018-06-28T03:07:44.815Z,99.90
2018-06-28T03:10:13.257Z,99.90
2018-06-28T03:12:41.629Z,99.90
2018-06-28T03:15:10.079Z,99.90
2018-06-28T03:17:38.842Z,99.90
2018-06-28T03:20:07.180Z,99.90
2018-06-28T03:22:35.558Z,99.90
2018-06-28T03:25:04.057Z,99.90
2018-06-28T03:27:32.423Z,99.90
2018-06-28T03:30:00.798Z,99.90
2018-06-28T03:32:29.168Z,99.90
2018-06-28T03:34:57.586Z,99.90
2018-06-28T03:37:25.944Z,99.90
2018-06-28T03:39:54.330Z,99.90
2018-06-28T03:42:22.856Z,99.90
2018-06-28T03:44:51.228Z,99.90
2018-06-28T03:47:19.686Z,99.90
2018-06-28T03:49:48.028Z,99.90
2018-06-28T03:52:16.364Z,99.90
2018-06-28T03:54:45.627Z,99.90
2018-06-28T03:57:14.455Z,99.90
2018-06-28T03:59:42.795Z,99.90
2018-06-28T04:02:11.153Z,99.90
2018-06-28T04:04:39.491Z,99.90
2018-06-28T04:07:07.858Z,99.90
2018-06-28T04:09:36.303Z,99.90
2018-06-28T04:12:04.657Z,99.90
2018-06-28T04:14:33.819Z,99.90
2018-06-28T04:17:02.183Z,99.90
2018-06-28T04:19:30.761Z,99.90
2018-06-28T04:21:59.103Z,99.90
2018-06-28T04:24:28.290Z,99.90
2018-06-28T04:26:57.406Z,99.90
2018-06-28T04:29:25.774Z,99.90
2018-06-28T04:31:54.883Z,99.90
2018-06-28T04:34:23.283Z,99.90
2018-06-28T04:36:51.627Z,99.90
2018-06-28T04:39:19.970Z,99.90
2018-06-28T04:41:48.457Z,99.90
2018-06-28T04:44:16.817Z,99.90
2018-06-28T04:46:45.195Z,99.90
2018-06-28T04:49:13.559Z,99.90
2018-06-28T04:51:42.044Z,99.90
2018-06-28T04:54:10.379Z,99.90
2018-06-28T04:56:39.514Z,99.90
2018-06-28T04:59:07.860Z,99.90
2018-06-28T05:01:36.990Z,99.90
2018-06-28T05:04:05.410Z,99.90
2018-06-28T05:06:33.769Z,99.90
2018-06-28T05:09:02.126Z,99.90
2018-06-28T05:11:30.712Z,99.90
2018-06-28T05:13:59.093Z,99.90
2018-06-28T05:16:27.434Z,99.90
2018-06-28T05:18:55.787Z,99.90
2018-06-28T05:21:24.230Z,99.90
2018-06-28T05:23:52.562Z,99.90
2018-06-28T05:26:21.711Z,99.90
2018-06-28T05:28:50.080Z,99.90
2018-06-28T05:31:18.446Z,99.90
2018-06-28T05:33:46.791Z,99.90
2018-06-28T05:36:19.237Z,99.90
2018-06-28T05:38:47.586Z,99.90
2018-06-28T05:41:15.954Z,99.90
2018-06-28T05:43:44.299Z,99.90
2018-06-28T05:46:13.427Z,99.90
2018-06-28T05:48:41.906Z,99.90
2018-06-28T05:51:10.933Z,99.90
2018-06-28T05:53:39.367Z,99.90
2018-06-28T05:56:08.588Z,99.90
2018-06-28T05:58:37.719Z,99.90
2018-06-28T06:01:06.332Z,99.90
2018-06-28T06:03:34.677Z,99.90
2018-06-28T06:06:03.035Z,99.90
2018-06-28T06:08:31.387Z,99.90
2018-06-28T06:10:59.779Z,99.90
2018-06-28T06:13:28.126Z,99.90
2018-06-28T06:15:56.462Z,99.90
2018-06-28T06:18:25.048Z,99.90
2018-06-28T06:20:53.399Z,99.90
2018-06-28T06:23:21.760Z,99.90
2018-06-28T06:25:50.858Z,99.90
2018-06-28T06:28:19.977Z,99.90
2018-06-28T06:30:48.418Z,99.90
2018-06-28T06:33:16.800Z,99.90
2018-06-28T06:35:45.149Z,99.90
2018-06-28T06:38:13.524Z,99.90
2018-06-28T06:40:41.878Z,99.90
2018-06-28T06:43:10.282Z,99.90
2018-06-28T06:45:38.849Z,99.90
2018-06-28T06:48:07.204Z,99.90
2018-06-28T06:50:36.333Z,99.90
2018-06-28T06:53:04.711Z,99.90
2018-06-28T06:55:33.078Z,99.90
2018-06-28T06:58:01.440Z,99.90
2018-06-28T07:00:30.673Z,99.90
2018-06-28T07:02:59.017Z,99.90
2018-06-28T07:05:27.523Z,99.90
2018-06-28T07:07:55.864Z,99.90
2018-06-28T07:10:24.311Z,99.90
2018-06-28T07:12:53.379Z,99.90
2018-06-28T07:15:21.739Z,99.90
2018-06-28T07:17:50.090Z,99.90
2018-06-28T07:20:19.243Z,99.90
2018-06-28T07:22:47.639Z,99.90
2018-06-28T07:25:20.019Z,99.90
2018-06-28T07:27:48.443Z,99.90
2018-06-28T07:30:16.923Z,99.90
2018-06-28T07:32:45.265Z,99.90
2018-06-28T07:35:13.623Z,99.90
2018-06-28T07:37:41.982Z,99.90
2018-06-28T07:40:10.450Z,99.90
2018-06-28T07:42:38.853Z,99.90
2018-06-28T07:45:07.261Z,99.70
2018-06-28T07:47:35.598Z,99.60
2018-06-28T07:50:03.977Z,99.70
2018-06-28T07:52:32.364Z,99.70
2018-06-28T07:55:00.858Z,99.20
2018-06-28T07:57:29.188Z,98.80
2018-06-28T07:59:57.854Z,98.70
2018-06-28T08:02:26.995Z,98.80
2018-06-28T08:04:55.485Z,98.90
2018-06-28T08:07:23.994Z,98.60
2018-06-28T08:09:52.371Z,98.90
2018-06-28T08:12:20.841Z,97.60
2018-06-28T08:14:49.201Z,97.40
2018-06-28T08:17:17.541Z,97.30
2018-06-28T08:19:46.778Z,97.40
2018-06-28T08:22:15.133Z,97.40
2018-06-28T08:24:44.247Z,97.20
2018-06-28T08:27:12.800Z,97.10
2018-06-28T08:29:41.241Z,96.80
2018-06-28T08:32:10.275Z,97.20
2018-06-28T08:34:38.615Z,96.30
2018-06-28T08:37:06.994Z,96.30
2018-06-28T08:39:35.336Z,96.10
2018-06-28T08:42:04.459Z,96.20
2018-06-28T08:44:33.266Z,96.20
2018-06-28T08:47:01.608Z,94.80
2018-06-28T08:49:30.084Z,94.80
2018-06-28T08:51:58.605Z,95.50
2018-06-28T08:54:27.339Z,94.10
2018-06-28T08:56:55.840Z,93.60
2018-06-28T08:59:24.182Z,93.50
2018-06-28T09:01:52.828Z,93.20
2018-06-28T09:04:21.229Z,93.60
2018-06-28T09:06:49.574Z,93.90
2018-06-28T09:09:18.071Z,93.60
2018-06-28T09:11:46.418Z,92.30
2018-06-28T09:14:14.810Z,92.80
2018-06-28T09:16:43.207Z,93.20
2018-06-28T09:19:11.716Z,92.40
2018-06-28T09:21:40.073Z,91.50
2018-06-28T09:24:08.630Z,91.00
2018-06-28T09:26:37.142Z,91.10
2018-06-28T09:29:05.620Z,90.20
2018-06-28T09:31:33.996Z,90.00
2018-06-28T09:34:02.375Z,90.20
2018-06-28T09:36:30.733Z,89.40
2018-06-28T09:38:59.725Z,90.20
2018-06-28T09:41:28.062Z,89.70
2018-06-28T09:43:56.426Z,90.00
2018-06-28T09:46:24.780Z,87.90
2018-06-28T09:48:53.291Z,87.20
2018-06-28T09:51:21.660Z,87.40
2018-06-28T09:53:50.021Z,87.90
2018-06-28T09:56:18.402Z,83.50
2018-06-28T09:58:46.886Z,83.00
2018-06-28T10:01:15.340Z,84.10
2018-06-28T10:03:43.869Z,83.10
2018-06-28T10:06:12.288Z,85.00
2018-06-28T10:08:41.564Z,78.80
2018-06-28T10:11:09.962Z,78.70
2018-06-28T10:13:39.106Z,77.80
2018-06-28T10:16:07.644Z,77.80
2018-06-28T10:18:36.790Z,76.20
2018-06-28T10:21:05.153Z,76.10
2018-06-28T10:23:33.747Z,72.80
2018-06-28T10:26:02.095Z,73.90
2018-06-28T10:28:30.457Z,76.60
2018-06-28T10:30:59.567Z,72.20
2018-06-28T10:33:28.700Z,73.80
2018-06-28T10:35:57.036Z,73.80
2018-06-28T10:38:26.280Z,72.60
2018-06-28T10:40:54.615Z,72.50
2018-06-28T10:43:23.767Z,70.60
2018-06-28T10:45:52.120Z,70.50
2018-06-28T10:48:20.458Z,69.30
2018-06-28T10:50:49.571Z,74.20
2018-06-28T10:53:18.803Z,71.30
2018-06-28T10:55:47.187Z,71.20
2018-06-28T10:58:15.801Z,70.10
2018-06-28T11:00:44.241Z,67.70
2018-06-28T11:03:12.723Z,67.70
2018-06-28T11:05:41.076Z,68.30
2018-06-28T11:08:10.199Z,66.70
2018-06-28T11:10:38.582Z,66.60
2018-06-28T11:13:07.853Z,64.70
2018-06-28T11:15:36.514Z,68.30
2018-06-28T11:18:04.873Z,66.30
2018-06-28T11:20:33.237Z,66.70
2018-06-28T11:23:01.573Z,68.90
2018-06-28T11:25:30.820Z,71.70
2018-06-28T11:27:59.145Z,71.70
2018-06-28T11:30:28.275Z,66.10
2018-06-28T11:32:56.653Z,65.80
2018-06-28T11:35:25.175Z,67.60
2018-06-28T11:37:53.583Z,63.10
2018-06-28T11:40:21.992Z,64.90
2018-06-28T11:42:50.341Z,62.10
2018-06-28T11:45:18.772Z,61.70
2018-06-28T11:47:47.203Z,65.20
2018-06-28T11:50:16.315Z,67.00
2018-06-28T11:52:45.434Z,62.90
2018-06-28T11:55:13.808Z,63.10
2018-06-28T11:57:42.745Z,65.90
2018-06-28T12:00:12.017Z,64.70
2018-06-28T12:02:40.390Z,63.70
2018-06-28T12:05:08.760Z,63.60
2018-06-28T12:07:37.611Z,60.30
2018-06-28T12:10:06.727Z,63.10
2018-06-28T12:12:35.256Z,62.10
2018-06-28T12:15:03.605Z,61.70
2018-06-28T12:17:32.897Z,58.10
2018-06-28T12:20:02.045Z,62.70
2018-06-28T12:22:30.407Z,62.70
2018-06-28T12:24:59.474Z,63.20
2018-06-28T12:27:28.331Z,63.00
2018-06-28T12:29:56.741Z,58.40
2018-06-28T12:32:26.051Z,58.70
2018-06-28T12:34:54.378Z,58.70
2018-06-28T12:37:22.794Z,60.20
2018-06-28T12:39:51.209Z,58.30
2018-06-28T12:42:19.730Z,58.80
2018-06-28T12:44:48.128Z,59.00
2018-06-28T12:47:52.707Z,57.70
2018-06-28T12:50:21.058Z,57.70
2018-06-28T12:52:49.733Z,57.80
2018-06-28T12:55:18.082Z,58.50
2018-06-28T12:57:47.438Z,57.70
2018-06-28T13:00:15.802Z,57.80
2018-06-28T13:02:44.189Z,59.90
2018-06-28T13:05:12.545Z,60.40
2018-06-28T13:07:41.034Z,61.50
2018-06-28T13:10:09.376Z,58.20
2018-06-28T13:12:37.953Z,58.40
2018-06-28T13:15:06.326Z,58.70
2018-06-28T13:17:34.688Z,59.10
2018-06-28T13:20:03.134Z,61.70
2018-06-28T13:22:31.438Z,63.50
2018-06-28T13:24:59.881Z,60.00
2018-06-28T13:27:29.332Z,59.00
2018-06-28T13:29:57.700Z,58.90
2018-06-28T13:32:26.078Z,57.20
2018-06-28T13:34:54.593Z,57.40
2018-06-28T13:37:22.940Z,56.80
2018-06-28T13:39:51.283Z,56.90
2018-06-28T13:42:20.596Z,59.80
2018-06-28T13:44:48.802Z,59.80
2018-06-28T13:47:17.162Z,58.50
2018-06-28T13:49:46.534Z,57.60
2018-06-28T13:52:15.820Z,59.00
2018-06-28T13:54:44.115Z,59.00
2018-06-28T13:57:13.235Z,57.90
2018-06-28T13:59:41.585Z,57.80
2018-06-28T14:02:10.718Z,60.40
2018-06-28T14:04:39.082Z,60.30
2018-06-28T14:07:07.447Z,59.10
2018-06-28T14:09:36.574Z,58.90
2018-06-28T14:12:04.914Z,58.90
2018-06-28T14:14:35.008Z,57.60
2018-06-28T14:17:03.470Z,57.50
2018-06-28T14:19:31.934Z,59.00
2018-06-28T14:22:00.574Z,58.00
2018-06-28T14:24:28.858Z,58.00
2018-06-28T14:26:57.970Z,56.90
2018-06-28T14:29:26.357Z,56.90
2018-06-28T14:31:55.474Z,58.90
2018-06-28T14:34:23.807Z,58.80
2018-06-28T14:36:52.953Z,61.80
2018-06-28T14:39:21.353Z,61.60
2018-06-28T14:41:49.716Z,60.70
2018-06-28T14:44:18.786Z,58.10
2018-06-28T14:46:47.198Z,58.10
2018-06-28T14:49:15.544Z,57.40
2018-06-28T14:51:44.770Z,58.00
2018-06-28T14:54:13.400Z,57.90
2018-06-28T14:56:42.614Z,61.50
2018-06-28T14:59:11.906Z,59.60
2018-06-28T15:01:40.232Z,59.60
2018-06-28T15:04:08.670Z,59.60
2018-06-28T15:06:36.994Z,59.00
2018-06-28T15:09:05.477Z,57.20
2018-06-28T15:11:33.851Z,56.80
2018-06-28T15:14:02.453Z,56.60
2018-06-28T15:16:30.807Z,55.60
2018-06-28T15:18:59.178Z,57.20
2018-06-28T15:21:27.583Z,57.30
2018-06-28T15:23:56.050Z,56.70
2018-06-28T15:26:24.407Z,56.60
2018-06-28T15:28:52.810Z,57.00
2018-06-28T15:31:21.135Z,58.10
2018-06-28T15:33:49.567Z,58.50
2018-06-28T15:36:17.919Z,58.50
2018-06-28T15:38:46.389Z,57.20
2018-06-28T15:41:14.732Z,57.40
2018-06-28T15:43:43.135Z,57.90
2018-06-28T15:46:11.484Z,57.00
2018-06-28T15:48:39.835Z,55.00
2018-06-28T15:51:08.182Z,54.90
2018-06-28T15:53:37.346Z,57.00
2018-06-28T15:56:05.686Z,56.90
2018-06-28T15:58:34.034Z,56.20
2018-06-28T16:01:02.453Z,55.80
2018-06-28T16:03:30.899Z,55.90
2018-06-28T16:06:00.040Z,54.00
2018-06-28T16:08:28.577Z,54.00
2018-06-28T16:10:56.929Z,55.00
2018-06-28T16:13:25.311Z,54.70
2018-06-28T16:15:53.654Z,55.50
2018-06-28T16:18:22.012Z,55.40
2018-06-28T16:20:50.372Z,55.80
2018-06-28T16:23:18.796Z,54.60
2018-06-28T16:25:47.270Z,54.50
2018-06-28T16:28:15.637Z,55.00
2018-06-28T16:30:44.052Z,55.00
2018-06-28T16:33:12.495Z,55.40
2018-06-28T16:35:41.605Z,57.20
2018-06-28T16:38:10.109Z,57.10
2018-06-28T16:40:38.491Z,54.60
2018-06-28T16:43:07.255Z,54.80
2018-06-28T16:45:35.739Z,55.80
2018-06-28T16:48:04.106Z,55.90
2018-06-28T16:50:32.453Z,55.70
2018-06-28T16:53:01.628Z,54.20
2018-06-28T16:55:30.008Z,54.10
2018-06-28T16:57:58.339Z,52.10
2018-06-28T17:00:26.740Z,51.20
2018-06-28T17:02:55.359Z,50.10
2018-06-28T17:05:23.822Z,49.20
2018-06-28T17:07:52.289Z,49.80
2018-06-28T17:10:20.663Z,50.80
2018-06-28T17:12:49.050Z,50.20
2018-06-28T17:15:17.411Z,47.80
2018-06-28T17:17:46.509Z,47.00
2018-06-28T17:20:14.975Z,47.00
2018-06-28T17:22:43.260Z,46.40
2018-06-28T17:25:11.614Z,46.50
2018-06-28T17:27:40.897Z,47.40
2018-06-28T17:30:09.249Z,46.70
2018-06-28T17:32:37.806Z,46.50
2018-06-28T17:35:06.186Z,46.50
2018-06-28T17:37:34.583Z,47.00
2018-06-28T17:40:03.588Z,47.60
2018-06-28T17:42:31.922Z,47.60
2018-06-28T17:45:00.327Z,46.80
2018-06-28T17:47:28.709Z,47.20
2018-06-28T17:49:57.058Z,48.10
2018-06-28T17:52:25.407Z,48.40
2018-06-28T17:54:53.898Z,48.30
2018-06-28T17:57:22.351Z,48.70
2018-06-28T17:59:50.753Z,48.70
2018-06-28T18:02:19.103Z,49.20
2018-06-28T18:04:47.538Z,48.50
2018-06-28T18:07:15.878Z,48.20
2018-06-28T18:09:44.646Z,48.00
2018-06-28T18:12:13.053Z,48.70
2018-06-28T18:14:42.089Z,48.40
2018-06-28T18:17:10.512Z,47.20
2018-06-28T18:19:39.883Z,48.00
2018-06-28T18:22:08.220Z,47.50
2018-06-28T18:24:36.868Z,47.30
2018-06-28T18:27:05.193Z,48.50
2018-06-28T18:29:34.401Z,48.90
2018-06-28T18:32:02.782Z,48.60
2018-06-28T18:34:32.037Z,48.90
2018-06-28T18:37:00.518Z,48.80
2018-06-28T18:39:28.864Z,48.70
2018-06-28T18:41:57.219Z,49.60
2018-06-28T18:44:26.322Z,50.00
2018-06-28T18:46:54.945Z,50.00
2018-06-28T18:49:23.287Z,50.30
2018-06-28T18:51:52.415Z,52.10
2018-06-28T18:54:22.137Z,51.40
2018-06-28T18:56:50.609Z,51.30
2018-06-28T18:59:19.196Z,51.80
2018-06-28T19:01:47.634Z,51.50
2018-06-28T19:04:16.042Z,51.60
2018-06-28T19:06:44.467Z,52.40
2018-06-28T19:09:12.907Z,52.90
2018-06-28T19:11:41.488Z,52.80
2018-06-28T19:14:09.930Z,53.80
2018-06-28T19:16:44.118Z,54.60
2018-06-28T19:19:12.631Z,55.40
2018-06-28T19:21:42.363Z,56.70
2018-06-28T19:24:10.815Z,56.60
2018-06-28T19:26:39.240Z,57.00
2018-06-28T19:29:07.664Z,57.30
2018-06-28T19:34:31.109Z,57.50
2018-06-28T19:36:59.591Z,57.90
2018-06-28T19:39:27.931Z,58.50
2018-06-28T19:44:53.086Z,58.40
2018-06-28T19:47:22.379Z,58.60
2018-06-28T19:49:50.721Z,59.20
2018-06-28T19:55:18.156Z,59.60
2018-06-28T19:57:46.503Z,61.30
2018-06-28T20:00:14.922Z,60.50
2018-06-28T20:05:38.917Z,61.20
2018-06-28T20:08:07.279Z,61.00
2018-06-28T20:10:35.815Z,61.80
2018-06-28T20:13:04.401Z,62.10
2018-06-28T20:15:38.484Z,61.80
2018-06-28T20:21:02.082Z,62.40
2018-06-28T20:23:30.441Z,62.70
2018-06-28T20:25:58.827Z,63.00
2018-06-28T20:34:17.338Z,63.70
2018-06-28T20:36:45.723Z,64.90
2018-06-28T20:39:14.093Z,64.70
2018-06-28T20:41:42.551Z,64.80
2018-06-28T20:44:10.926Z,64.70
2018-06-28T20:46:39.302Z,64.50
2018-06-28T20:49:07.658Z,64.80
2018-06-28T20:51:36.043Z,64.70
2018-06-28T20:54:04.492Z,65.30
2018-06-28T20:56:33.035Z,65.80
2018-06-28T20:59:01.427Z,66.30
2018-06-28T21:01:29.743Z,66.90
2018-06-28T21:03:58.094Z,66.50
2018-06-28T21:06:26.438Z,65.70
2018-06-28T21:08:54.836Z,65.70
2018-06-28T21:11:23.208Z,66.00
2018-06-28T21:13:51.680Z,66.40
2018-06-28T21:16:20.025Z,66.90
2018-06-28T21:18:49.285Z,67.20
2018-06-28T21:21:17.744Z,67.00
2018-06-28T21:23:46.036Z,67.20
2018-06-28T21:26:14.459Z,67.40
2018-06-28T21:28:43.673Z,68.10
2018-06-28T21:31:12.847Z,68.30
2018-06-28T21:33:41.201Z,68.10
2018-06-28T21:36:09.542Z,69.20
2018-06-28T21:38:38.164Z,68.40
2018-06-28T21:41:06.526Z,68.00
2018-06-28T21:43:34.890Z,68.20
2018-06-28T21:46:03.292Z,67.70
2018-06-28T21:48:31.741Z,67.70
2018-06-28T21:51:00.867Z,67.70
2018-06-28T21:53:29.218Z,67.50
2018-06-28T21:55:57.663Z,67.80
2018-06-28T21:58:26.113Z,67.60
2018-06-28T22:00:54.492Z,67.30
2018-06-28T22:03:22.969Z,68.10
2018-06-28T22:05:51.510Z,67.90
2018-06-28T22:08:21.169Z,68.60
2018-06-28T22:10:49.536Z,68.50
2018-06-28T22:13:17.973Z,69.00
2018-06-28T22:15:47.073Z,68.90
2018-06-28T22:18:15.465Z,68.90
2018-06-28T22:20:44.559Z,69.10
2018-06-28T22:23:13.717Z,69.00
2018-06-28T22:25:42.173Z,69.60
2018-06-28T22:28:10.589Z,69.60
2018-06-28T22:30:39.087Z,70.40
2018-06-28T22:33:07.486Z,70.00
2018-06-28T22:35:35.867Z,70.40
2018-06-28T22:38:04.257Z,70.30
2018-06-28T22:40:32.686Z,70.80
2018-06-28T22:43:01.054Z,70.90
2018-06-28T22:45:29.408Z,70.30
2018-06-28T22:47:57.759Z,70.60
2018-06-28T22:50:26.169Z,71.10
2018-06-28T22:52:54.564Z,70.90
2018-06-28T22:55:23.013Z,71.40
2018-06-28T22:57:51.594Z,71.10
2018-06-28T23:00:20.657Z,71.00
2018-06-28T23:02:49.974Z,71.70
2018-06-28T23:05:18.480Z,71.70
2018-06-28T23:07:46.843Z,72.20
2018-06-28T23:10:15.284Z,72.10
2018-06-28T23:12:43.700Z,72.00
2018-06-28T23:15:12.843Z,73.20
2018-06-28T23:17:41.489Z,73.10
2018-06-28T23:20:09.912Z,73.80
2018-06-28T23:22:38.321Z,73.70
2018-06-28T23:25:06.656Z,73.70
2018-06-28T23:27:35.117Z,74.20
2018-06-28T23:30:03.657Z,74.30
2018-06-28T23:32:32.030Z,74.50
2018-06-28T23:35:00.586Z,74.30
2018-06-28T23:37:28.722Z,74.70
2018-06-28T23:39:57.111Z,74.90
2018-06-28T23:42:25.470Z,75.30
2018-06-28T23:44:54.666Z,76.50
2018-06-28T23:47:23.799Z,76.10
2018-06-28T23:49:52.247Z,76.00
2018-06-28T23:52:21.376Z,76.90
2018-06-28T23:54:49.735Z,76.90
2018-06-28T23:57:18.902Z,76.90
2018-06-28T23:59:47.317Z,76.80
